• Join FlightAware (Why Join?)
  • Login
  • US Flag 
01:42AM EST


 

Airport Tracker/Info


-or-


 

Live Flight TrackerFlight Track Log ✈ SWA2003 ✈ 10-Aug-2013 ✈ KMCI - KLAX

Flight Track Log - Related Links

Times and Time Zones

All times are in EDT time to prevent confusion due to time zone crossing. See the SWA2003 flight status page for this flight to view local times or setup timezone preferences in your user account.

Time Position Orientation Groundspeed Altitude Reporting Facility
EDT Latitude Longitude Course Direction KTS MPH feet Rate Location/Type
08:08PM 39.3667 -94.7667 311° West 217 250 3,200  Level Kansas City TRACON
08:09PM 39.3731 -94.7908 289° West 242 278 3,500 2,280 Climbing Kansas City Center
08:10PM 39.3656 -94.9011 265° West 278 320 6,700 3,120 Climbing Kansas City Center
08:11PM 39.3617 -95.0006 267° West 290 334 10,000 2,760 Climbing Kansas City Center
08:12PM 39.3542 -95.1322 266° West 347 399 12,400 2,580 Climbing Kansas City Center
08:13PM 39.3489 -95.2711 267° West 370 426 15,300 2,700 Climbing Kansas City Center
08:14PM 39.3428 -95.4067 267° West 381 438 18,000 2,400 Climbing Kansas City Center
08:15PM 39.3361 -95.5369 266° West 388 447 20,300 2,160 Climbing Kansas City Center
08:16PM 39.3297 -95.6711 267° West 392 451 22,500 2,160 Climbing Kansas City Center
08:17PM 39.3214 -95.8322 266° West 402 463 24,800 2,040 Climbing Kansas City Center
08:18PM 39.3139 -95.9719 266° West 407 468 26,800 2,100 Climbing Kansas City Center
08:19PM 39.3044 -96.1344 266° West 407 468 29,100 1,920 Climbing Kansas City Center
08:20PM 39.3033 -96.2689 269° West 400 460 30,800 1,560 Climbing Kansas City Center
08:21PM 39.3039 -96.4139 270° West 403 464 32,300 1,560 Climbing Kansas City Center
08:22PM 39.3056 -96.5708 271° West 402 463 34,000 780 Climbing Kansas City Center
08:23PM 39.3061 -96.7036 270° West 392 451 34,000  Level Kansas City Center
08:24PM 39.3067 -96.8569 270° West 386 444 34,000  Level Kansas City Center
08:25PM 39.3058 -96.9889 270° West 384 442 34,000  Level Kansas City Center
08:26PM 39.3061 -97.1203 270° West 384 442 34,100 900 Climbing Kansas City Center
08:27PM 39.3067 -97.2747 270° West 384 442 35,900 1,260 Climbing Kansas City Center
08:28PM 39.3064 -97.4061 270° West 383 441 36,800 1,020 Climbing Kansas City Center
08:29PM 39.3036 -97.5622 269° West 389 448 38,000 540 Climbing Kansas City Center
08:30PM 39.3031 -97.6994 270° West 382 440 38,000  Level Kansas City Center
08:31PM 39.3017 -97.8333 269° West 375 432 38,000  Level Kansas City Center
08:32PM 39.3022 -97.9711 270° West 373 429 38,000  Level Kansas City Center
08:33PM 39.3000 -98.1003 269° West 374 430 38,000  Level Kansas City Center
08:34PM 39.2992 -98.2383 270° West 378 435 38,000  Level Kansas City Center
08:35PM 39.2958 -98.3761 268° West 382 440 38,000  Level Kansas City Center
08:36PM 39.2950 -98.5119 270° West 379 436 38,000  Level Kansas City Center
08:37PM 39.2958 -98.6400 271° West 371 427 38,000  Level Kansas City Center
08:38PM 39.2719 -98.7889 258° West 380 437 38,000  Level Kansas City Center
08:39PM 39.2481 -98.9211 257° West 382 440 38,000  Level Kansas City Center
08:40PM 39.2231 -99.0553 257° West 385 443 38,000  Level Kansas City Center
08:41PM 39.2044 -99.1614 257° West 380 437 38,000  Level Denver Center
08:42PM 39.1811 -99.2886 257° West 375 432 38,000  Level Denver Center
08:43PM 39.1592 -99.4156 257° West 379 436 38,000  Level Denver Center
08:44PM 39.1328 -99.5589 257° West 371 427 38,000  Level Denver Center
08:45PM 39.1094 -99.6844 257° West 376 433 38,000  Level Denver Center
08:46PM 39.0836 -99.8294 257° West 373 429 38,000  Level Denver Center
08:47PM 39.0600 -99.9536 256° West 375 432 38,000  Level Denver Center
08:48PM 39.0367 -100.0797 257° West 377 434 38,000  Level Denver Center
08:49PM 39.0100 -100.2272 257° West 379 436 38,000  Level Denver Center
08:50PM 38.9853 -100.3533 256° West 381 438 38,000  Level Denver Center
08:51PM 38.9575 -100.4978 256° West 376 433 38,000  Level Denver Center
08:52PM 38.9333 -100.6253 256° West 382 440 38,000  Level Denver Center
08:53PM 38.9058 -100.7711 256° West 379 436 38,000  Level Denver Center
08:54PM 38.8814 -100.8936 256° West 375 432 38,000  Level Denver Center
08:55PM 38.8575 -101.0183 256° West 375 432 38,000  Level Denver Center
08:56PM 38.8297 -101.1611 256° West 373 429 38,000  Level Denver Center
08:57PM 38.8047 -101.2839 255° West 373 429 38,000  Level Denver Center
08:58PM 38.7767 -101.4286 256° West 374 430 38,000  Level Denver Center
08:59PM 38.7522 -101.5508 256° West 372 428 38,000  Level Denver Center
09:00PM 38.7161 -101.6947 252° West 379 436 38,000  Level Denver Center
09:02PM 38.6600 -101.8036 237° Southwest 384 442 38,000  Level Denver Center
09:03PM 38.6033 -101.9128 236° Southwest 385 443 38,000  Level Denver Center
09:04PM 38.5431 -102.0425 239° Southwest 381 438 38,000  Level Denver Center
09:05PM 38.4894 -102.1547 239° Southwest 385 443 38,000  Level Denver Center
09:06PM 38.4286 -102.2861 239° Southwest 386 444 38,000  Level Denver Center
09:07PM 38.3756 -102.3981 239° Southwest 385 443 38,000  Level Denver Center
09:08PM 38.3131 -102.5275 238° Southwest 385 443 38,000  Level Denver Center
09:09PM 38.2611 -102.6389 239° Southwest 385 443 38,000  Level Denver Center
09:10PM 38.2097 -102.7508 240° Southwest 384 442 38,000  Level Denver Center
09:11PM 38.1519 -102.8800 240° Southwest 379 436 38,000  Level Denver Center
09:12PM 38.1006 -102.9922 240° Southwest 382 440 38,000  Level Denver Center
09:13PM 38.0442 -103.1200 241° Southwest 373 429 38,000  Level Denver Center
09:14PM 37.9919 -103.2400 241° Southwest 377 434 38,000  Level Denver Center
09:15PM 37.9472 -103.3514 243° Southwest 373 429 38,000  Level Denver Center
09:16PM 37.8919 -103.4842 242° Southwest 383 441 38,000  Level Denver Center
09:17PM 37.8453 -103.5997 243° Southwest 386 444 38,000  Level Denver Center
09:18PM 37.7975 -103.7150 242° Southwest 387 445 38,000  Level Denver Center
09:19PM 37.7428 -103.8511 243° Southwest 390 449 38,000  Level Denver Center
09:20PM 37.6992 -103.9697 245° Southwest 392 451 38,000  Level Denver Center
09:21PM 37.6503 -104.1083 246° West 395 455 38,000  Level Denver Center
09:22PM 37.6281 -104.2342 257° West 389 448 38,000  Level Denver Center
09:23PM 37.6031 -104.3819 258° West 389 448 38,000  Level Denver Center
09:24PM 37.5817 -104.5078 258° West 385 443 38,000  Level Denver Center
09:25PM 37.5553 -104.6536 257° West 383 441 38,000  Level Denver Center
09:26PM 37.5339 -104.7789 258° West 382 440 38,000  Level Denver Center
09:27PM 37.5114 -104.9072 258° West 390 449 38,000  Level Denver Center
09:28PM 37.4847 -105.0581 257° West 394 453 38,000  Level Denver Center
09:29PM 37.4594 -105.1953 257° West 397 457 38,000  Level Denver Center
09:30PM 37.4367 -105.3247 258° West 395 455 38,000  Level Denver Center
09:31PM 37.4097 -105.4744 257° West 394 453 38,000  Level Denver Center
09:32PM 37.3839 -105.6008 256° West 391 450 38,000  Level Denver Center
09:33PM 37.3578 -105.7500 258° West 391 450 38,000  Level Denver Center
09:34PM 37.3353 -105.8764 257° West 389 448 38,000  Level Denver Center
09:35PM 37.3083 -106.0022 255° West 390 449 38,000  Level Denver Center
09:36PM 37.2833 -106.1514 258° West 390 449 38,000  Level Denver Center
09:37PM 37.2583 -106.2794 256° West 393 452 38,000  Level Denver Center
09:38PM 37.2281 -106.4319 256° West 403 464 38,000  Level Denver Center
09:39PM 37.2047 -106.5658 258° West 409 471 38,000  Level Denver Center
09:40PM 37.1725 -106.7214 255° West 413 475 38,000  Level Denver Center
09:41PM 37.1472 -106.8553 257° West 414 476 38,000  Level Denver Center
09:43PM 37.1211 -106.9900 256° West 416 479 38,000  Level Denver Center
09:44PM 37.0897 -107.1469 256° West 416 479 38,000  Level Denver Center
09:45PM 37.0628 -107.2811 256° West 417 480 38,000  Level Denver Center
09:46PM 37.0325 -107.4375 256° West 416 479 38,000  Level Denver Center
09:47PM 37.0317 -107.5706 270° West 405 466 38,000  Level Denver Center
09:48PM 37.0772 -107.6994 294° West 432 497 38,000  Level Denver Center
09:49PM 37.1742 -107.8200 315° West 441 507 38,000  Level Denver Center
09:50PM 37.2614 -107.9186 318° Northwest 440 506 38,000  Level Denver Center
09:51PM 37.3217 -108.0658 297° West 425 489 38,000  Level Denver Center
09:52PM 37.3075 -108.1961 262° West 402 463 38,000  Level Denver Center
09:53PM 37.2636 -108.3372 249° West 393 452 38,000  Level Denver Center
09:54PM 37.2283 -108.4628 251° West 396 456 38,000  Level Denver Center
09:55PM 37.1936 -108.5869 251° West 396 456 38,000  Level Denver Center
09:56PM 37.1506 -108.7317 250° West 396 456 38,000  Level Denver Center
09:57PM 37.1144 -108.8575 250° West 399 459 38,000  Level Denver Center
09:58PM 37.0711 -109.0033 250° West 401 461 38,000  Level Denver Center
09:59PM 37.0342 -109.1294 250° West 403 464 38,000  Level Denver Center
10:00PM 36.9906 -109.2769 250° West 405 466 38,000  Level Denver Center
10:01PM 36.9533 -109.4028 250° West 405 466 38,000  Level Denver Center
10:02PM 36.9158 -109.5297 250° West 407 468 38,000  Level Denver Center
10:03PM 36.8717 -109.6767 249° West 405 466 38,000  Level Denver Center
10:04PM 36.8336 -109.8008 249° West 403 464 38,000  Level Denver Center
10:05PM 36.7903 -109.9464 250° West 402 463 38,000  Level Denver Center
10:06PM 36.7522 -110.0689 249° West 397 457 38,000  Level Denver Center
10:07PM 36.7111 -110.2028 249° West 394 453 38,000  Level Denver Center
10:08PM 36.6717 -110.3297 249° West 393 452 38,000  Level Denver Center
10:09PM 36.6331 -110.4542 249° West 388 447 38,000  Level Denver Center
10:10PM 36.5939 -110.5831 249° West 396 456 38,000  Level Denver Center
10:11PM 36.5547 -110.7114 249° West 397 457 38,000  Level Denver Center
10:12PM 36.5139 -110.8392 248° West 397 457 38,000  Level Denver Center
10:13PM 36.4731 -110.9683 249° West 400 460 38,000  Level Denver Center
10:14PM 36.4333 -111.0947 249° West 396 456 38,000  Level Denver Center
10:15PM 36.3850 -111.2456 248° West 393 452 38,000  Level Denver Center
10:16PM 36.3450 -111.3706 248° West 391 450 38,000  Level Denver Center
10:17PM 36.3050 -111.4947 248° West 389 448 38,000  Level Denver Center
10:18PM 36.2647 -111.6208 248° West 392 451 38,000  Level Denver Center
10:19PM 36.2311 -111.7206 247° West 389 448 38,000  Level Los Angeles Center
10:20PM 36.1839 -111.8431 245° Southwest 392 451 38,000  Level Los Angeles Center
10:21PM 36.1392 -111.9692 246° West 399 459 38,000  Level Los Angeles Center
10:22PM 36.0931 -112.0933 245° Southwest 399 459 38,000  Level Los Angeles Center
10:23PM 36.0475 -112.2172 246° West 401 461 38,000  Level Los Angeles Center
10:24PM 36.0025 -112.3444 246° West 399 459 38,000  Level Los Angeles Center
10:25PM 35.9558 -112.4692 245° Southwest 399 459 38,000  Level Los Angeles Center
10:26PM 35.9022 -112.6147 246° West 402 463 38,000  Level Los Angeles Center
10:27PM 35.8561 -112.7367 245° Southwest 399 459 38,000  Level Los Angeles Center
10:28PM 35.8114 -112.8572 245° Southwest 394 453 38,000  Level Los Angeles Center
10:29PM 35.7658 -112.9783 245° Southwest 395 455 38,000  Level Los Angeles Center
10:30PM 35.7211 -113.0983 245° Southwest 393 452 38,000  Level Los Angeles Center
10:31PM 35.6717 -113.2272 245° Southwest 391 450 38,000  Level Los Angeles Center
10:32PM 35.6214 -113.3608 245° Southwest 392 451 38,000  Level Los Angeles Center
10:33PM 35.5758 -113.4797 245° Southwest 389 448 38,000  Level Los Angeles Center
10:34PM 35.5300 -113.6000 245° Southwest 392 451 38,000  Level Los Angeles Center
10:36PM 35.4836 -113.7197 245° Southwest 393 452 38,000  Level Los Angeles Center
10:37PM 35.4375 -113.8392 245° Southwest 391 450 38,000  Level Los Angeles Center
10:38PM 35.3800 -113.9800 243° Southwest 396 456 38,000  Level Los Angeles Center
10:39PM 35.3342 -114.1006 245° Southwest 394 453 38,000  Level Los Angeles Center
10:40PM 35.2864 -114.2208 244° Southwest 391 450 38,000  Level Los Angeles Center
10:41PM 35.2425 -114.3367 245° Southwest 381 438 38,000  Level Los Angeles Center
10:42PM 35.1953 -114.4567 244° Southwest 386 444 38,000  Level Los Angeles Center
10:43PM 35.1481 -114.5767 244° Southwest 389 448 38,000  Level Los Angeles Center
10:44PM 35.1000 -114.6986 244° Southwest 395 455 38,000  Level Los Angeles Center
10:45PM 35.0517 -114.8183 244° Southwest 393 452 38,000  Level Los Angeles Center
10:46PM 34.9942 -114.9628 244° Southwest 393 452 38,000  Level Los Angeles Center
10:47PM 34.9464 -115.0819 244° Southwest 391 450 38,000 -120 Level Los Angeles Center
10:48PM 34.8989 -115.1989 244° Southwest 388 447 37,800 -600 Descending Los Angeles Center
10:49PM 34.8508 -115.3142 243° Southwest 383 441 36,800 -900 Descending Los Angeles Center
10:50PM 34.8014 -115.4342 243° Southwest 389 448 36,000 -420 Descending Los Angeles Center
10:51PM 34.7528 -115.5564 244° Southwest 396 456 36,000  Level Los Angeles Center
10:52PM 34.7053 -115.6792 245° Southwest 402 463 36,000  Level Los Angeles Center
10:53PM 34.6567 -115.7992 244° Southwest 398 458 36,000  Level Los Angeles Center
10:54PM 34.6078 -115.9172 243° Southwest 395 455 36,000  Level Los Angeles Center
10:55PM 34.5586 -116.0375 244° Southwest 397 457 36,000  Level Los Angeles Center
10:56PM 34.5083 -116.1567 243° Southwest 396 456 36,000 -360 Level Los Angeles Center
10:57PM 34.4583 -116.2750 243° Southwest 396 456 35,300 -2,100 Descending Los Angeles Center
10:58PM 34.4000 -116.4167 244° Southwest 393 452 31,800 -2,760 Descending Los Angeles Center
10:59PM 34.3381 -116.5656 243° Southwest 409 471 29,100 -2,280 Descending Los Angeles Center
11:00PM 34.2867 -116.6861 243° Southwest 404 465 26,800 -2,220 Descending Los Angeles Center
11:01PM 34.2372 -116.8036 243° Southwest 395 455 24,600 -2,100 Descending Los Angeles Center
11:02PM 34.1894 -116.9158 243° Southwest 379 436 22,500 -2,040 Descending Los Angeles Center
11:03PM 34.1436 -117.0264 243° Southwest 368 423 20,500 -2,160 Descending Los Angeles Center
11:04PM 34.1000 -117.1167 240° Southwest 356 410 18,900 -2,280 Descending Southern California TRACON
11:05PM 34.0667 -117.2167 248° West 352 405 16,700 -2,100 Descending Southern California TRACON
11:06PM 34.0333 -117.3333 251° West 343 395 14,700 -2,040 Descending Southern California TRACON
11:07PM 34.0333 -117.4333 270° West 332 382 12,700 -1,920 Descending Southern California TRACON
11:08PM 34.0333 -117.5500 270° West 309 356 10,900 -1,140 Descending Southern California TRACON
11:10PM 34.0167 -117.7500 264° West 278 320 9,300 -1,020 Descending Southern California TRACON
11:11PM 34.0167 -117.8333 270° West 276 318 8,100 -1,320 Descending Southern California TRACON
11:12PM 34.0000 -117.9333 259° West 274 315 6,900 -1,080 Descending Southern California TRACON
11:13PM 33.9833 -118.0167 256° West 255 293 6,000 -900 Descending Southern California TRACON
11:14PM 33.9833 -118.1000 270° West 220 253 5,100 -900 Descending Southern California TRACON
11:15PM 33.9797 -118.1306 262° West 220 253 4,500 -1,140 Descending Los Angeles Center
11:16PM 33.9736 -118.1953 264° West 203 234 3,300 -1,020 Descending Los Angeles Center
11:17PM 33.9669 -118.2561 262° West 191 220 2,500 -840 Descending Los Angeles Center
11:18PM 33.9625 -118.3053 264° West 168 193 1,700 -780 Descending Los Angeles Center
11:19PM 33.9583 -118.3497 264° West 148 170 900 -780 Descending Los Angeles Center
11:20PM 33.9536 -118.3953 263° West 141 162 200 -720 Descending Los Angeles Center
11:22PM 33.9333 -118.4000 259° West  Level FlightAware Approximate